Dati Storici

Data ora Umidita' aria (%) Temperatura aria (°C) Rad globale (W/m²) Gonioanemometro (°) Tacoanemometro (m/s) Pioggia (mm)
18-06-2020 16:10 43.4 % 26.532 130.813 2.221 0 0
18-06-2020 16:00 42.2 % 27.123 138.714 5.167 0 0
18-06-2020 15:50 45.3 % 26.967 194.035 3.278 0 0
18-06-2020 15:40 45.4 % 26.93 245.856 1.903 0 0
18-06-2020 15:30 46.6 % 26.373 156.872 3.644 0 0
18-06-2020 15:20 47.2 % 26.538 139.664 3.152 0 0
18-06-2020 15:10 47.2 % 26.67 197.427 2.666 0 0
18-06-2020 15:00 47.5 % 26.106 231.466 2.84 0 0
18-06-2020 14:50 49.1 % 26.153 209.351 2.364 0 0
18-06-2020 14:40 48.4 % 26.65 20.481 3.076 0 0
18-06-2020 14:30 47.5 % 25.962 181.672 3.538 0 0
18-06-2020 14:20 48.7 % 26.226 169.929 2.365 0 0
18-06-2020 14:10 50.1 % 26.32 266.778 2.835 0 0
18-06-2020 14:00 49.5 % 26.136 168.392 4.667 0 0
18-06-2020 13:50 51.1 % 25.513 208.12 4.13 0 0
18-06-2020 13:40 50.6 % 25.545 41.756 4.84 0 0
18-06-2020 13:30 51.5 % 25.417 199.999 2.256 0 0
18-06-2020 13:20 50.2 % 26.2 182.533 3.187 0 0
18-06-2020 13:10 51.6 % 26.171 135.247 2.484 0 0
18-06-2020 13:00 53.7 % 25.765 107.126 2.4 0 0

I dati sono presentati in modo automatico a scopo informativo. In seguito a verifica i dati possono subire modifiche o essere invalidati e non riportati negli archivi definitivi.